Time;durP1;ratioP1;P1;durP2;ratioP2;P2;SDS_P1;SDS_P2;PMS_P1;PMS_P2;Temp;Humidity;BMP_temperature;BMP_pressure;BME280_temperature;BME280_humidity;BME280_pressure;Samples;Min_cycle;Max_cycle;Signal;HPM_P1;HPM_P2
2022/10/20 00:01:03;;;;;;;10.13;4.55;;;8.40;99.90;;;;;;5031016;28;20052;-71
2022/10/20 00:03:30;;;;;;;6.60;4.03;;;8.30;99.90;;;;;;5033952;28;20511;-71
2022/10/20 00:06:19;;;;;;;8.25;4.65;;;8.30;99.90;;;;;;5025859;28;20025;-71
2022/10/20 00:08:46;;;;;;;11.95;6.57;;;8.30;99.90;;;;;;5013812;28;20045;-71
2022/10/20 00:11:15;;;;;;;10.35;4.97;;;8.30;99.90;;;;;;5032338;28;20033;-71
2022/10/20 00:13:43;;;;;;;7.95;4.72;;;8.30;99.90;;;;;;5029789;28;20046;-71
2022/10/20 00:16:10;;;;;;;10.07;5.50;;;8.30;99.90;;;;;;5008363;28;20049;-71
2022/10/20 00:18:37;;;;;;;7.85;4.93;;;8.30;99.90;;;;;;5033509;28;20041;-72
2022/10/20 00:21:09;;;;;;;8.25;4.13;;;8.30;99.90;;;;;;5031760;28;20037;-72
2022/10/20 00:23:35;;;;;;;7.05;3.13;;;8.20;99.90;;;;;;5032965;28;20033;-71
2022/10/20 00:26:26;;;;;;;6.82;4.50;;;8.20;99.90;;;;;;5024825;28;20025;-71
2022/10/20 00:28:54;;;;;;;10.60;5.30;;;8.20;99.90;;;;;;5029123;28;20044;-71
2022/10/20 00:31:22;;;;;;;10.40;6.45;;;8.20;99.90;;;;;;5032000;28;20400;-72
2022/10/20 00:33:48;;;;;;;7.97;4.90;;;8.20;99.90;;;;;;5027889;28;20034;-71
2022/10/20 00:36:17;;;;;;;7.65;5.47;;;8.20;99.90;;;;;;5029035;28;20404;-70
2022/10/20 00:38:43;;;;;;;10.18;5.50;;;8.20;99.90;;;;;;5033042;28;20044;-71
2022/10/20 00:41:15;;;;;;;9.35;4.10;;;8.20;99.90;;;;;;5029516;28;20036;-71
2022/10/20 00:43:47;;;;;;;8.25;4.97;;;8.20;99.90;;;;;;5028821;28;20052;-72
2022/10/20 00:46:19;;;;;;;8.05;4.72;;;8.10;99.90;;;;;;5028974;28;20036;-72
2022/10/20 00:48:50;;;;;;;8.77;5.18;;;8.10;99.90;;;;;;5031996;28;20496;-72
2022/10/20 00:51:21;;;;;;;8.45;4.47;;;8.10;99.90;;;;;;5032638;28;20037;-72
2022/10/20 00:53:51;;;;;;;8.55;4.82;;;8.10;99.90;;;;;;5031203;28;20025;-70
2022/10/20 00:56:19;;;;;;;8.13;5.97;;;8.10;99.90;;;;;;5028114;28;20040;-71
2022/10/20 00:58:46;;;;;;;5.80;4.35;;;8.10;99.90;;;;;;5036111;28;20045;-71
2022/10/20 01:01:13;;;;;;;6.80;4.93;;;8.10;99.90;;;;;;5028986;28;20038;-71
2022/10/20 01:03:44;;;;;;;8.23;4.85;;;8.10;99.90;;;;;;5032850;28;20029;-71
2022/10/20 01:06:12;;;;;;;7.85;4.82;;;8.10;99.90;;;;;;5025658;28;20041;-71
2022/10/20 01:08:39;;;;;;;8.00;6.22;;;8.10;99.90;;;;;;5035869;28;20037;-71
2022/10/20 01:11:17;;;;;;;7.03;5.30;;;8.10;99.90;;;;;;5029337;28;20443;-71
2022/10/20 01:14:00;;;;;;;10.50;4.95;;;8.10;99.90;;;;;;5031636;28;20412;-71
2022/10/20 01:16:53;;;;;;;12.90;7.20;;;8.00;99.90;;;;;;4996470;28;20068;-71
2022/10/20 01:19:49;;;;;;;9.75;6.65;;;8.00;99.90;;;;;;5029058;28;20044;-71
2022/10/20 01:22:23;;;;;;;7.18;4.93;;;8.00;99.90;;;;;;5010171;28;20057;-72
2022/10/20 01:25:21;;;;;;;5.55;4.85;;;8.00;99.90;;;;;;5025552;28;20056;-72
2022/10/20 01:27:54;;;;;;;8.73;5.93;;;8.00;99.90;;;;;;5035130;28;20040;-71
2022/10/20 01:30:22;;;;;;;6.50;5.72;;;7.90;99.90;;;;;;5034695;28;20033;-71
2022/10/20 01:33:00;;;;;;;10.25;6.13;;;7.90;99.90;;;;;;5027458;28;20389;-72
2022/10/20 01:35:51;;;;;;;8.88;4.35;;;7.90;99.90;;;;;;5027364;28;20052;-72
2022/10/20 01:38:35;;;;;;;7.88;5.00;;;7.90;99.90;;;;;;5031421;28;20049;-71
2022/10/20 01:41:10;;;;;;;8.63;5.78;;;7.90;99.90;;;;;;5029230;28;20060;-72
2022/10/20 01:43:39;;;;;;;8.57;5.00;;;7.80;99.90;;;;;;5027356;28;20029;-72
2022/10/20 01:46:08;;;;;;;8.38;5.07;;;7.80;99.90;;;;;;5029548;28;20032;-71
2022/10/20 01:48:36;;;;;;;10.10;5.32;;;7.80;99.90;;;;;;5035812;28;20033;-71
2022/10/20 01:51:03;;;;;;;8.27;5.57;;;7.80;99.90;;;;;;5030927;28;20037;-71
2022/10/20 01:53:29;;;;;;;6.88;4.93;;;7.80;99.90;;;;;;5030874;28;20056;-71
2022/10/20 01:55:59;;;;;;;7.88;5.43;;;7.80;99.90;;;;;;5027924;28;20038;-71
2022/10/20 01:58:39;;;;;;;7.38;4.50;;;7.80;99.90;;;;;;5029315;28;20041;-70
2022/10/20 02:01:26;;;;;;;7.47;4.68;;;7.70;99.90;;;;;;5030028;28;20040;-71
2022/10/20 02:03:59;;;;;;;6.68;4.63;;;7.70;99.90;;;;;;5030095;28;20411;-70
2022/10/20 02:06:53;;;;;;;5.97;3.83;;;7.70;99.90;;;;;;5025912;28;20051;-71
2022/10/20 02:09:29;;;;;;;6.53;5.43;;;7.70;99.90;;;;;;5027443;28;20050;-70
2022/10/20 02:12:06;;;;;;;7.80;6.20;;;7.80;99.90;;;;;;5028162;28;20038;-71
2022/10/20 02:14:33;;;;;;;7.22;5.38;;;7.70;99.90;;;;;;5022661;28;20440;-71
2022/10/20 02:17:04;;;;;;;7.70;5.28;;;7.70;99.90;;;;;;5029646;28;20052;-71
2022/10/20 02:19:33;;;;;;;7.65;4.90;;;7.70;99.90;;;;;;5012643;28;20033;-71
2022/10/20 02:22:00;;;;;;;8.40;5.38;;;7.70;99.90;;;;;;5027104;28;20399;-72
2022/10/20 02:24:32;;;;;;;8.63;5.05;;;7.70;99.90;;;;;;5029449;28;20037;-72
2022/10/20 02:27:03;;;;;;;9.82;6.30;;;7.70;99.90;;;;;;5031863;28;20048;-72
2022/10/20 02:29:56;;;;;;;9.73;5.43;;;7.80;99.90;;;;;;5029751;28;20465;-71
2022/10/20 02:32:23;;;;;;;9.88;6.43;;;7.70;99.90;;;;;;5012495;28;20431;-72
2022/10/20 02:34:50;;;;;;;7.60;5.45;;;7.70;99.90;;;;;;5025747;28;20746;-72
2022/10/20 02:37:16;;;;;;;9.68;6.43;;;7.70;99.90;;;;;;5032843;28;20092;-71
2022/10/20 02:39:42;;;;;;;7.80;6.22;;;7.80;99.90;;;;;;5027695;28;20029;-71
2022/10/20 02:42:08;;;;;;;6.28;4.25;;;7.80;99.90;;;;;;5027450;28;20100;-71
2022/10/20 02:44:35;;;;;;;6.18;4.47;;;7.70;99.90;;;;;;5007717;28;20029;-72
2022/10/20 02:47:01;;;;;;;4.60;3.90;;;7.70;99.90;;;;;;5031915;28;20048;-71
2022/10/20 02:49:27;;;;;;;4.88;3.83;;;7.70;99.90;;;;;;5028861;28;20476;-71
2022/10/20 02:51:53;;;;;;;9.25;4.50;;;7.70;99.90;;;;;;5014418;28;20040;-71
2022/10/20 02:54:20;;;;;;;5.20;4.40;;;7.70;99.90;;;;;;5025757;28;20404;-71
2022/10/20 02:56:46;;;;;;;9.48;5.47;;;7.70;99.90;;;;;;5030487;28;20036;-71
2022/10/20 02:59:15;;;;;;;5.32;4.53;;;7.70;99.90;;;;;;5015054;28;20056;-71
2022/10/20 03:01:42;;;;;;;6.07;4.03;;;7.70;99.90;;;;;;5026531;28;20036;-70
2022/10/20 03:04:09;;;;;;;7.53;4.38;;;7.70;99.90;;;;;;5022882;28;20048;-70
2022/10/20 03:06:35;;;;;;;9.07;5.30;;;7.80;99.90;;;;;;5028215;28;20049;-70
2022/10/20 03:09:01;;;;;;;5.90;4.00;;;7.70;99.90;;;;;;5028808;28;20037;-71
2022/10/20 03:11:27;;;;;;;8.80;4.95;;;7.80;99.90;;;;;;5027562;28;20453;-71
2022/10/20 03:13:54;;;;;;;8.98;5.35;;;7.80;99.90;;;;;;5033693;28;20046;-71
2022/10/20 03:16:20;;;;;;;8.05;4.55;;;7.70;99.90;;;;;;5028601;28;20040;-72
2022/10/20 03:18:46;;;;;;;5.00;4.03;;;7.70;99.90;;;;;;5040942;28;20041;-72
2022/10/20 03:21:12;;;;;;;5.75;4.68;;;7.80;99.90;;;;;;5033477;28;20045;-71
2022/10/20 03:23:39;;;;;;;7.32;4.78;;;7.80;99.90;;;;;;5016463;28;20038;-71
2022/10/20 03:26:08;;;;;;;8.82;4.55;;;7.70;99.90;;;;;;5032809;28;20125;-72
2022/10/20 03:28:35;;;;;;;6.78;4.45;;;7.70;99.90;;;;;;5034270;28;20400;-72
2022/10/20 03:31:01;;;;;;;8.70;5.32;;;7.70;99.90;;;;;;5012487;28;20037;-71
2022/10/20 03:33:27;;;;;;;7.25;4.35;;;7.70;99.90;;;;;;5029074;28;20345;-71
2022/10/20 03:35:53;;;;;;;7.85;4.47;;;7.70;99.90;;;;;;5027373;28;20389;-72
2022/10/20 03:38:20;;;;;;;5.55;4.25;;;7.70;99.90;;;;;;5033578;28;20064;-71
2022/10/20 03:40:46;;;;;;;7.38;4.97;;;7.70;99.90;;;;;;5034201;28;20044;-71
2022/10/20 03:43:14;;;;;;;4.78;4.28;;;7.70;99.90;;;;;;5030907;28;20395;-71
2022/10/20 03:45:41;;;;;;;8.23;5.55;;;7.70;99.90;;;;;;5025897;28;20040;-71
2022/10/20 03:48:08;;;;;;;6.07;5.40;;;7.70;99.90;;;;;;5016254;28;20048;-71
2022/10/20 03:50:38;;;;;;;12.88;7.30;;;7.70;99.90;;;;;;5031574;28;20044;-71
2022/10/20 03:53:04;;;;;;;8.57;6.55;;;7.80;99.90;;;;;;5029881;28;20401;-72
2022/10/20 03:55:30;;;;;;;8.13;5.75;;;7.80;99.90;;;;;;5026957;28;20048;-72
2022/10/20 03:57:57;;;;;;;7.65;6.28;;;7.70;99.90;;;;;;5034140;28;20045;-71
2022/10/20 04:00:23;;;;;;;9.68;6.18;;;7.80;99.90;;;;;;5018762;28;20863;-71
2022/10/20 04:02:50;;;;;;;11.73;5.60;;;7.80;99.90;;;;;;5029586;28;20041;-71
2022/10/20 04:05:19;;;;;;;8.27;5.63;;;7.80;99.90;;;;;;5025464;28;20032;-71
2022/10/20 04:07:46;;;;;;;8.48;6.10;;;7.80;99.90;;;;;;5032787;28;20073;-72
2022/10/20 04:10:14;;;;;;;7.60;5.40;;;7.80;99.90;;;;;;5030219;28;20028;-71
2022/10/20 04:12:40;;;;;;;11.13;6.30;;;7.80;99.90;;;;;;5028699;28;20408;-72
2022/10/20 04:15:07;;;;;;;9.18;4.78;;;7.80;99.90;;;;;;5024757;28;20489;-71
2022/10/20 04:17:35;;;;;;;6.80;5.07;;;7.80;99.90;;;;;;5019336;28;20051;-72
2022/10/20 04:20:04;;;;;;;7.65;5.95;;;7.80;99.90;;;;;;5029203;28;20037;-71
2022/10/20 04:22:30;;;;;;;6.18;4.45;;;7.80;99.90;;;;;;5028432;28;20064;-72
2022/10/20 04:24:56;;;;;;;10.02;6.03;;;7.80;99.90;;;;;;5027195;28;20041;-71
2022/10/20 04:27:22;;;;;;;6.82;4.47;;;7.80;99.90;;;;;;5033664;28;20049;-72
2022/10/20 04:29:48;;;;;;;8.38;5.45;;;7.80;99.90;;;;;;5030798;28;20040;-71
2022/10/20 04:32:15;;;;;;;8.02;4.80;;;7.80;99.90;;;;;;5029927;28;20029;-72
2022/10/20 04:34:41;;;;;;;8.60;5.85;;;7.80;99.90;;;;;;5027845;28;20040;-71
2022/10/20 04:37:07;;;;;;;7.00;5.55;;;7.80;99.90;;;;;;5034027;28;20045;-69
2022/10/20 04:39:34;;;;;;;6.43;5.68;;;7.80;99.90;;;;;;5031468;28;20033;-71
2022/10/20 04:42:00;;;;;;;8.68;5.00;;;7.80;99.90;;;;;;5027035;28;20068;-72
2022/10/20 04:44:26;;;;;;;11.20;6.82;;;7.80;99.90;;;;;;5009472;28;20041;-71
2022/10/20 04:46:55;;;;;;;10.75;6.45;;;7.80;99.90;;;;;;5032072;28;20037;-71
2022/10/20 04:49:21;;;;;;;7.65;6.28;;;7.90;99.90;;;;;;5032720;28;20484;-71
2022/10/20 04:51:48;;;;;;;6.65;5.90;;;7.90;99.90;;;;;;5029729;28;20033;-70
2022/10/20 04:54:14;;;;;;;6.43;5.20;;;7.90;99.90;;;;;;5025878;28;20392;-70
2022/10/20 04:56:40;;;;;;;10.85;6.00;;;7.90;99.90;;;;;;5033572;28;20033;-71
2022/10/20 04:59:07;;;;;;;8.65;6.32;;;8.00;99.90;;;;;;5030384;28;20487;-70
2022/10/20 05:01:34;;;;;;;9.40;6.97;;;8.00;99.90;;;;;;5028397;28;20040;-70
2022/10/20 05:04:00;;;;;;;7.72;6.03;;;8.00;99.90;;;;;;5028700;28;20041;-70
2022/10/20 05:06:28;;;;;;;8.23;5.85;;;8.00;99.90;;;;;;5010874;28;20036;-72
2022/10/20 05:08:57;;;;;;;11.70;6.85;;;8.00;99.90;;;;;;5033255;28;20029;-71
2022/10/20 05:11:26;;;;;;;10.35;6.65;;;8.00;99.90;;;;;;5031114;28;20040;-71
2022/10/20 05:13:52;;;;;;;8.60;6.32;;;8.00;99.90;;;;;;5012424;28;20049;-71
2022/10/20 05:16:19;;;;;;;9.07;6.05;;;8.10;99.90;;;;;;5012305;28;20037;-72
2022/10/20 05:18:45;;;;;;;14.05;5.97;;;8.10;99.90;;;;;;5032240;28;20044;-72
2022/10/20 05:21:17;;;;;;;12.82;6.28;;;8.10;99.90;;;;;;5029439;28;20029;-72
2022/10/20 05:23:45;;;;;;;7.28;5.40;;;8.10;99.90;;;;;;5028665;28;20037;-72
2022/10/20 05:26:16;;;;;;;15.10;7.43;;;8.10;99.90;;;;;;5025418;28;20028;-72
2022/10/20 05:28:45;;;;;;;6.50;5.70;;;8.10;99.90;;;;;;5032297;28;20044;-72
2022/10/20 05:31:11;;;;;;;10.88;7.10;;;8.10;99.90;;;;;;5013714;28;20373;-72
2022/10/20 05:33:38;;;;;;;6.40;5.25;;;8.20;99.90;;;;;;5030951;28;20037;-73
2022/10/20 05:36:12;;;;;;;10.50;8.05;;;8.20;99.90;;;;;;5023515;28;20036;-72
2022/10/20 05:38:40;;;;;;;10.13;6.63;;;8.20;99.90;;;;;;5032669;28;20049;-73
2022/10/20 05:41:12;;;;;;;8.30;5.82;;;8.20;99.90;;;;;;5012622;28;20037;-72
2022/10/20 05:43:38;;;;;;;6.15;5.13;;;8.20;99.90;;;;;;5029940;28;20030;-73
2022/10/20 05:46:05;;;;;;;6.18;5.07;;;8.20;99.90;;;;;;5025645;28;20044;-69
2022/10/20 05:48:32;;;;;;;11.07;7.85;;;8.20;99.90;;;;;;5034174;28;20021;-72
2022/10/20 05:51:16;;;;;;;10.32;6.38;;;8.20;99.90;;;;;;5027185;28;20034;-72
2022/10/20 05:53:43;;;;;;;8.32;5.85;;;8.20;99.90;;;;;;5008771;28;20025;-72
2022/10/20 05:56:12;;;;;;;7.05;6.15;;;8.10;99.90;;;;;;5026856;28;20036;-72
2022/10/20 05:58:39;;;;;;;11.52;6.97;;;8.10;99.90;;;;;;5025845;28;20599;-72
2022/10/20 06:01:22;;;;;;;9.60;6.93;;;8.10;99.90;;;;;;5024943;28;20029;-71
2022/10/20 06:03:54;;;;;;;9.55;6.05;;;8.10;99.90;;;;;;5023706;28;20025;-69
2022/10/20 06:06:23;;;;;;;8.03;7.23;;;8.10;99.90;;;;;;5023000;28;20586;-71
2022/10/20 06:08:50;;;;;;;9.65;7.20;;;8.20;99.90;;;;;;5023440;28;20576;-69
2022/10/20 06:11:17;;;;;;;9.07;7.00;;;8.20;99.90;;;;;;5027115;28;20033;-70
2022/10/20 06:13:44;;;;;;;9.60;6.82;;;8.20;99.90;;;;;;5023237;28;20419;-70
2022/10/20 06:16:19;;;;;;;11.50;8.20;;;8.20;99.90;;;;;;5023800;28;20328;-70
2022/10/20 06:18:45;;;;;;;11.52;9.38;;;8.20;99.90;;;;;;5019285;28;20041;-69
2022/10/20 06:21:17;;;;;;;13.20;9.00;;;8.20;99.90;;;;;;5024866;28;20049;-69
2022/10/20 06:23:44;;;;;;;15.63;11.82;;;8.30;99.90;;;;;;5017524;28;20030;-70
2022/10/20 06:26:13;;;;;;;11.23;9.38;;;8.30;99.90;;;;;;5017454;28;20036;-70
2022/10/20 06:28:40;;;;;;;12.02;7.45;;;8.30;99.90;;;;;;5020881;28;20044;-71
2022/10/20 06:31:12;;;;;;;11.23;8.35;;;8.30;99.90;;;;;;5021311;28;20037;-71
2022/10/20 06:33:38;;;;;;;9.48;6.57;;;8.30;99.90;;;;;;5014356;28;20518;-72
2022/10/20 06:36:05;;;;;;;10.82;6.93;;;8.40;99.90;;;;;;5030491;28;20041;-71
2022/10/20 06:38:31;;;;;;;8.15;6.65;;;8.40;99.90;;;;;;5008930;28;20049;-72
2022/10/20 06:41:01;;;;;;;7.88;5.65;;;8.40;99.90;;;;;;5022977;28;20040;-72
2022/10/20 06:43:27;;;;;;;8.52;7.35;;;8.50;99.90;;;;;;5026202;28;20388;-73
2022/10/20 06:45:59;;;;;;;12.10;9.13;;;8.50;99.90;;;;;;5018536;28;20040;-72
2022/10/20 06:48:26;;;;;;;12.55;9.88;;;8.50;99.90;;;;;;5028807;28;20045;-73
2022/10/20 06:50:57;;;;;;;13.32;7.72;;;8.50;99.90;;;;;;5023575;28;20037;-73
2022/10/20 06:53:25;;;;;;;6.78;5.35;;;8.60;99.90;;;;;;5009535;28;20065;-71
2022/10/20 06:55:59;;;;;;;12.00;7.93;;;8.60;99.90;;;;;;5018298;28;20033;-71
2022/10/20 06:58:27;;;;;;;10.90;7.68;;;8.60;99.90;;;;;;5020170;28;20050;-70
2022/10/20 07:01:00;;;;;;;10.57;6.53;;;8.70;99.90;;;;;;5016169;28;20395;-72
2022/10/20 07:03:28;;;;;;;8.85;7.07;;;8.70;99.90;;;;;;5022234;28;20033;-72
2022/10/20 07:05:55;;;;;;;8.80;7.25;;;8.80;99.90;;;;;;5019858;28;20041;-70
2022/10/20 07:08:22;;;;;;;12.15;7.82;;;8.80;99.90;;;;;;5016525;28;20500;-70
2022/10/20 07:11:07;;;;;;;11.73;8.38;;;8.90;99.90;;;;;;5025167;28;20034;-70
2022/10/20 07:13:35;;;;;;;9.45;6.20;;;8.90;99.90;;;;;;5009638;28;20041;-70
2022/10/20 07:16:03;;;;;;;9.15;7.68;;;9.00;99.90;;;;;;5019640;28;20061;-70
2022/10/20 07:18:30;;;;;;;12.32;8.73;;;9.10;99.90;;;;;;5024226;28;20049;-70
2022/10/20 07:21:02;;;;;;;12.07;8.35;;;9.10;99.90;;;;;;5021084;28;20037;-70
2022/10/20 07:23:29;;;;;;;12.00;7.27;;;9.20;99.90;;;;;;5023985;28;20037;-71
2022/10/20 07:26:00;;;;;;;7.68;6.75;;;9.20;99.90;;;;;;5031885;28;20300;-70
2022/10/20 07:28:27;;;;;;;10.35;7.03;;;9.30;99.90;;;;;;5020763;28;20037;-70
2022/10/20 07:30:54;;;;;;;7.78;6.50;;;9.30;99.90;;;;;;5036001;28;20056;-70
2022/10/20 07:33:20;;;;;;;9.45;6.30;;;9.40;99.90;;;;;;5006773;28;20397;-71
2022/10/20 07:35:48;;;;;;;11.35;7.22;;;9.50;99.90;;;;;;5013853;28;20025;-70
2022/10/20 07:38:15;;;;;;;9.30;7.18;;;9.50;99.90;;;;;;5023252;28;20045;-70
2022/10/20 07:40:41;;;;;;;7.18;6.20;;;9.50;99.90;;;;;;5006395;28;20041;-70
2022/10/20 07:43:07;;;;;;;8.88;6.32;;;9.60;99.90;;;;;;5024411;28;20025;-70
2022/10/20 07:45:34;;;;;;;7.70;6.15;;;9.60;99.90;;;;;;5021233;28;20404;-70
2022/10/20 07:48:00;;;;;;;7.22;6.38;;;9.70;99.90;;;;;;5012294;28;20488;-71
2022/10/20 07:50:27;;;;;;;8.25;6.65;;;9.70;99.90;;;;;;5027702;28;20037;-70
2022/10/20 07:52:53;;;;;;;8.90;5.82;;;9.80;99.90;;;;;;5025841;28;20260;-71
2022/10/20 07:55:19;;;;;;;10.02;7.38;;;9.80;99.90;;;;;;5021481;28;20416;-70
2022/10/20 07:57:46;;;;;;;6.65;5.55;;;9.80;99.90;;;;;;5031464;28;20399;-71
2022/10/20 08:00:13;;;;;;;9.57;7.18;;;9.90;99.90;;;;;;5029090;28;20491;-71
2022/10/20 08:02:40;;;;;;;7.47;6.18;;;10.00;99.90;;;;;;5028186;28;20030;-71
2022/10/20 08:05:07;;;;;;;10.60;7.75;;;10.00;99.90;;;;;;5035791;28;20041;-71
2022/10/20 08:07:40;;;;;;;9.38;7.70;;;10.10;99.90;;;;;;5020285;28;20064;-72
2022/10/20 08:10:06;;;;;;;9.52;6.47;;;10.10;99.90;;;;;;5022438;28;20044;-71
2022/10/20 08:12:33;;;;;;;9.55;8.07;;;10.10;99.90;;;;;;5021069;28;20041;-71
2022/10/20 08:14:59;;;;;;;10.15;7.13;;;10.20;99.90;;;;;;5003582;28;20061;-71
2022/10/20 08:17:26;;;;;;;11.95;7.97;;;10.20;99.90;;;;;;5019324;28;20033;-71
2022/10/20 08:19:52;;;;;;;12.02;8.60;;;10.20;99.90;;;;;;5020676;28;20037;-72
2022/10/20 08:22:19;;;;;;;8.65;6.82;;;10.30;99.90;;;;;;5021021;28;20030;-71
2022/10/20 08:24:46;;;;;;;10.48;8.02;;;10.30;99.90;;;;;;5011415;28;20033;-71
2022/10/20 08:27:12;;;;;;;8.13;6.15;;;10.40;99.90;;;;;;4990443;28;20045;-72
2022/10/20 08:29:38;;;;;;;6.47;5.82;;;10.50;99.90;;;;;;4996727;28;20045;-72
2022/10/20 08:32:04;;;;;;;8.75;6.55;;;10.60;99.90;;;;;;5014568;28;20041;-71
2022/10/20 08:34:31;;;;;;;10.00;7.30;;;10.70;99.90;;;;;;5014789;28;20380;-71
2022/10/20 08:36:57;;;;;;;9.63;7.57;;;10.70;99.90;;;;;;5020538;28;20034;-72
2022/10/20 08:39:23;;;;;;;8.50;7.40;;;10.80;99.90;;;;;;5015916;28;20038;-71
2022/10/20 08:41:50;;;;;;;8.02;6.97;;;10.90;99.90;;;;;;5030926;28;20037;-71
2022/10/20 08:44:39;;;;;;;10.75;8.00;;;11.10;99.90;;;;;;5022693;28;20534;-72
2022/10/20 08:47:21;;;;;;;8.48;6.40;;;11.20;99.90;;;;;;5024057;28;20041;-72
2022/10/20 08:49:47;;;;;;;9.73;7.03;;;11.40;99.90;;;;;;4997997;28;20041;-72
2022/10/20 08:52:14;;;;;;;12.23;6.90;;;11.50;99.90;;;;;;5022578;28;20641;-72
2022/10/20 08:54:41;;;;;;;10.18;6.80;;;11.70;99.90;;;;;;5005148;28;20392;-71
2022/10/20 08:57:22;;;;;;;9.73;6.18;;;11.80;99.90;;;;;;5025756;28;20030;-72
2022/10/20 08:59:54;;;;;;;8.25;6.65;;;11.90;99.90;;;;;;5031786;28;20041;-72
2022/10/20 09:02:21;;;;;;;7.57;6.27;;;12.00;99.90;;;;;;5028894;28;20088;-72
2022/10/20 09:04:54;;;;;;;7.28;5.25;;;12.10;99.90;;;;;;5025183;28;20651;-72
2022/10/20 09:07:37;;;;;;;7.47;6.10;;;12.20;99.90;;;;;;5032024;28;20044;-71
2022/10/20 09:10:23;;;;;;;;;;;12.30;99.90;;;;;;5013710;28;20392;-71
2022/10/20 09:12:51;;;;;;;9.98;7.72;;;12.40;99.90;;;;;;5024936;28;20422;-71
2022/10/20 09:15:19;;;;;;;14.73;8.85;;;12.60;99.90;;;;;;5017237;28;20057;-71
2022/10/20 09:17:50;;;;;;;11.90;7.30;;;12.70;99.90;;;;;;5026444;28;20473;-71
2022/10/20 09:20:33;;;;;;;14.13;8.35;;;12.80;99.90;;;;;;5022856;28;20045;-72
2022/10/20 09:22:59;;;;;;;10.30;6.10;;;12.90;99.90;;;;;;5024589;28;20025;-70
2022/10/20 09:25:26;;;;;;;9.65;6.50;;;13.00;99.90;;;;;;5022660;28;20480;-71
2022/10/20 09:27:55;;;;;;;11.05;7.78;;;13.00;99.90;;;;;;5030585;28;20045;-71
2022/10/20 09:30:39;;;;;;;9.68;8.20;;;13.20;99.90;;;;;;5011181;28;20042;-71
2022/10/20 09:33:21;;;;;;;9.10;7.60;;;13.30;99.90;;;;;;5028778;28;20060;-71
2022/10/20 09:35:48;;;;;;;11.10;7.20;;;13.30;99.90;;;;;;5019583;28;20037;-71
2022/10/20 09:38:28;;;;;;;8.48;6.00;;;13.30;99.90;;;;;;5025731;28;20048;-72
2022/10/20 09:41:05;;;;;;;12.38;7.15;;;13.40;99.90;;;;;;5024147;28;20043;-72
2022/10/20 09:43:32;;;;;;;10.43;6.95;;;13.40;99.90;;;;;;5023113;28;20033;-71
2022/10/20 09:46:05;;;;;;;8.23;6.43;;;13.40;99.90;;;;;;5018816;28;20040;-71
2022/10/20 09:48:35;;;;;;;9.82;7.03;;;13.50;99.90;;;;;;5021001;28;20378;-71
2022/10/20 09:51:03;;;;;;;9.18;7.50;;;13.50;99.90;;;;;;5025636;28;20483;-72
2022/10/20 09:53:48;;;;;;;9.23;7.80;;;13.50;99.90;;;;;;5019880;28;20026;-70
2022/10/20 09:56:23;;;;;;;8.05;5.57;;;13.50;99.90;;;;;;5016566;28;20042;-71
2022/10/20 09:58:50;;;;;;;9.15;6.35;;;13.60;99.90;;;;;;5030169;28;20029;-71
2022/10/20 10:01:17;;;;;;;10.45;6.30;;;13.60;99.90;;;;;;5021009;28;20036;-71
2022/10/20 10:03:45;;;;;;;7.03;6.32;;;13.60;99.90;;;;;;5025918;28;20034;-72
2022/10/20 10:06:37;;;;;;;7.43;6.63;;;13.70;99.90;;;;;;5022022;28;20026;-72
2022/10/20 10:09:31;;;;;;;8.73;5.65;;;13.70;99.90;;;;;;5029940;28;20029;-72
2022/10/20 10:12:03;;;;;;;8.82;6.63;;;13.70;99.90;;;;;;5023747;28;20030;-73
2022/10/20 10:14:32;;;;;;;13.88;6.88;;;13.70;99.90;;;;;;5022400;28;20064;-72
2022/10/20 10:16:59;;;;;;;8.95;6.05;;;13.60;99.90;;;;;;5023840;28;20056;-73
2022/10/20 10:19:29;;;;;;;11.18;7.28;;;13.70;99.90;;;;;;5026550;28;20365;-71
2022/10/20 10:22:01;;;;;;;8.18;6.60;;;13.70;99.90;;;;;;5024983;28;20041;-71
2022/10/20 10:24:39;;;;;;;;;;;13.70;99.90;;;;;;5022107;28;20048;-71
2022/10/20 10:27:37;;;;;;;5.78;4.28;;;13.70;99.90;;;;;;4993640;28;20625;-72
2022/10/20 10:30:29;;;;;;;6.70;5.90;;;13.70;99.90;;;;;;5026492;28;20045;-72
2022/10/20 10:32:56;;;;;;;4.97;4.53;;;13.70;99.90;;;;;;5025315;28;20030;-72
2022/10/20 10:35:28;;;;;;;6.32;5.72;;;13.70;99.90;;;;;;5019221;28;20443;-72
2022/10/20 10:37:55;;;;;;;8.13;6.65;;;13.70;99.90;;;;;;5026820;28;20056;-74
2022/10/20 10:40:38;;;;;;;7.43;5.75;;;13.70;99.90;;;;;;5028282;28;20056;-72
2022/10/20 10:43:23;;;;;;;6.97;5.70;;;13.70;99.90;;;;;;5024921;28;20041;-73
2022/10/20 10:46:20;;;;;;;9.48;6.55;;;13.70;99.90;;;;;;5018487;28;20030;-72
2022/10/20 10:49:09;;;;;;;8.88;6.20;;;13.70;99.90;;;;;;5030855;28;20400;-73
2022/10/20 10:52:20;;;;;;;6.82;5.45;;;13.70;99.90;;;;;;5027690;28;20025;-71
2022/10/20 10:55:08;;;;;;;6.65;5.63;;;13.80;99.90;;;;;;5010974;28;20038;-72
2022/10/20 10:57:50;;;;;;;7.82;6.35;;;13.80;99.90;;;;;;5020181;28;20044;-73
2022/10/20 11:00:29;;;;;;;8.00;6.33;;;13.90;99.90;;;;;;5031733;28;20042;-72
2022/10/20 11:03:02;;;;;;;9.85;6.45;;;13.90;99.90;;;;;;5027934;28;20045;-72
2022/10/20 11:05:47;;;;;;;13.82;6.05;;;14.00;99.90;;;;;;5026616;28;20045;-72
2022/10/20 11:08:16;;;;;;;6.50;4.95;;;14.00;99.90;;;;;;5029656;28;20033;-71
2022/10/20 11:10:52;;;;;;;7.40;5.88;;;14.00;99.90;;;;;;5032330;28;20389;-72
2022/10/20 11:13:27;;;;;;;7.18;6.00;;;14.00;99.90;;;;;;5031018;28;20365;-72
2022/10/20 11:16:12;;;;;;;7.32;6.47;;;14.10;99.90;;;;;;5020899;28;20050;-71
2022/10/20 11:19:20;;;;;;;9.77;7.53;;;14.10;99.90;;;;;;5027588;28;20337;-70
2022/10/20 11:22:14;;;;;;;10.32;6.95;;;14.10;99.90;;;;;;4989076;28;20041;-71
2022/10/20 11:25:06;;;;;;;14.05;8.40;;;14.10;99.90;;;;;;5028050;28;20499;-70
2022/10/20 11:27:35;;;;;;;9.38;7.30;;;14.20;99.90;;;;;;5006556;28;20412;-71
2022/10/20 11:30:15;;;;;;;9.20;6.15;;;14.20;99.90;;;;;;5018019;28;20034;-71
2022/10/20 11:32:44;;;;;;;8.30;6.38;;;14.20;99.90;;;;;;5017637;28;20025;-71
2022/10/20 11:35:28;;;;;;;9.23;6.95;;;14.20;99.90;;;;;;5016036;28;20033;-71
2022/10/20 11:38:19;;;;;;;7.30;6.60;;;14.20;99.90;;;;;;5001320;28;20508;-71
2022/10/20 11:40:59;;;;;;;6.10;5.00;;;14.20;99.90;;;;;;5016196;28;20052;-70
2022/10/20 11:44:10;;;;;;;5.55;5.00;;;14.20;99.90;;;;;;5026625;28;20037;-71
2022/10/20 11:47:18;;;;;;;7.68;6.32;;;14.20;99.90;;;;;;4987452;28;20498;-72
2022/10/20 11:49:44;;;;;;;6.75;5.22;;;14.20;99.90;;;;;;4937952;28;20053;-73
2022/10/20 11:52:54;;;;;;;8.05;7.18;;;14.20;99.90;;;;;;5011531;28;20045;-75
2022/10/20 11:55:42;;;;;;;6.55;5.30;;;14.20;99.90;;;;;;5007496;28;20052;-76
2022/10/20 11:58:29;;;;;;;7.97;7.00;;;14.10;99.90;;;;;;5025026;28;20033;-74
2022/10/20 12:01:16;;;;;;;9.15;7.00;;;14.10;99.90;;;;;;5011441;28;20407;-74
2022/10/20 12:04:08;;;;;;;7.13;5.68;;;14.00;99.90;;;;;;5023384;28;20392;-73
2022/10/20 12:06:48;;;;;;;8.85;7.10;;;14.00;99.90;;;;;;5013556;28;20067;-76
2022/10/20 12:09:29;;;;;;;12.60;8.50;;;13.90;99.90;;;;;;5035505;28;20032;-76
2022/10/20 12:12:04;;;;;;;9.38;7.97;;;13.80;99.90;;;;;;5026605;28;20046;-75
2022/10/20 12:14:36;;;;;;;10.45;7.22;;;13.80;99.90;;;;;;5022038;28;20041;-76
2022/10/20 12:17:08;;;;;;;6.80;6.13;;;13.80;99.90;;;;;;5016007;28;20507;-76
2022/10/20 12:19:34;;;;;;;7.93;5.85;;;13.80;99.90;;;;;;5032644;28;20030;-76
2022/10/20 12:22:02;;;;;;;10.52;8.32;;;13.80;99.90;;;;;;5026249;28;20048;-75
2022/10/20 12:24:54;;;;;;;7.68;6.90;;;13.80;99.90;;;;;;5023173;28;20044;-76
2022/10/20 12:27:28;;;;;;;8.48;6.97;;;13.80;99.90;;;;;;5014007;28;20535;-75
2022/10/20 12:30:03;;;;;;;9.70;8.60;;;13.80;99.90;;;;;;5026535;28;20115;-76
2022/10/20 12:32:56;;;;;;;12.73;9.57;;;13.80;99.90;;;;;;5022203;28;20033;-74
2022/10/20 12:35:22;;;;;;;10.57;8.30;;;13.80;99.90;;;;;;5019121;28;20042;-75
2022/10/20 12:37:58;;;;;;;10.77;8.98;;;13.80;99.90;;;;;;5008981;28;20048;-76
2022/10/20 12:40:29;;;;;;;10.85;9.18;;;13.70;99.90;;;;;;5023116;28;20034;-74
2022/10/20 12:42:56;;;;;;;14.15;11.27;;;13.70;99.90;;;;;;5026461;28;20041;-76
2022/10/20 12:45:26;;;;;;;13.30;10.60;;;13.70;99.90;;;;;;5007181;28;20048;-77
2022/10/20 12:47:57;;;;;;;10.25;7.78;;;13.70;99.90;;;;;;5032295;28;20041;-76
2022/10/20 12:50:33;;;;;;;11.90;9.82;;;13.80;99.90;;;;;;5025679;28;20037;-75
2022/10/20 12:53:16;;;;;;;13.18;10.10;;;13.80;99.90;;;;;;5008002;28;20638;-74
2022/10/20 12:55:53;;;;;;;11.05;8.77;;;13.90;99.90;;;;;;5023282;28;20500;-75
2022/10/20 12:58:19;;;;;;;11.07;9.38;;;13.90;99.90;;;;;;5029271;28;20534;-72
2022/10/20 13:00:45;;;;;;;9.82;8.82;;;13.90;99.90;;;;;;5026327;28;20033;-75
2022/10/20 13:03:39;;;;;;;11.80;9.50;;;14.10;99.90;;;;;;5029312;28;20493;-74
2022/10/20 13:06:21;;;;;;;10.20;8.80;;;14.10;99.90;;;;;;5000862;28;20046;-75
2022/10/20 13:09:03;;;;;;;11.32;9.52;;;14.20;99.90;;;;;;5043524;28;20030;-74
2022/10/20 13:11:39;;;;;;;10.52;8.95;;;14.30;99.90;;;;;;5019144;28;20041;-74
2022/10/20 13:14:11;;;;;;;13.73;9.10;;;14.30;99.90;;;;;;5017261;28;20037;-73
2022/10/20 13:16:49;;;;;;;7.85;6.28;;;14.30;99.90;;;;;;4991076;28;20358;-74